Time;durP1;ratioP1;P1;durP2;ratioP2;P2;SDS_P1;SDS_P2;PMS_P1;PMS_P2;Temp;Humidity;BMP_temperature;BMP_pressure;BME280_temperature;BME280_humidity;BME280_pressure;Samples;Min_cycle;Max_cycle;Signal;HPM_P1;HPM_P2
2021/07/20 00:00:13;;;;;;;14.30;7.45;;;18.30;99.90;;;;;;5035903;28;20060;-64
2021/07/20 00:02:42;;;;;;;12.18;6.45;;;18.10;99.90;;;;;;5035892;28;20394;-63
2021/07/20 00:05:11;;;;;;;10.45;6.25;;;18.10;99.90;;;;;;5035472;28;20773;-64
2021/07/20 00:07:39;;;;;;;11.70;6.40;;;17.90;99.90;;;;;;5036092;28;20040;-64
2021/07/20 00:10:11;;;;;;;27.80;7.15;;;18.00;99.90;;;;;;5035228;28;20146;-63
2021/07/20 00:12:38;;;;;;;21.83;7.38;;;17.90;99.90;;;;;;5037679;28;20484;-64
2021/07/20 00:15:08;;;;;;;18.85;6.72;;;17.90;99.90;;;;;;5036553;28;20123;-64
2021/07/20 00:17:35;;;;;;;12.25;6.30;;;17.90;99.90;;;;;;5034188;28;20052;-63
2021/07/20 00:20:04;;;;;;;15.95;6.82;;;17.90;99.90;;;;;;5035235;28;20463;-64
2021/07/20 00:22:31;;;;;;;12.98;6.65;;;17.90;99.90;;;;;;5034643;28;20895;-64
2021/07/20 00:24:59;;;;;;;15.30;6.65;;;18.10;99.90;;;;;;5035555;28;20048;-64
2021/07/20 00:27:27;;;;;;;15.63;6.20;;;18.10;99.90;;;;;;5035725;28;20586;-63
2021/07/20 00:29:54;;;;;;;15.90;6.15;;;18.10;99.90;;;;;;5034831;28;20083;-63
2021/07/20 00:32:21;;;;;;;11.95;6.10;;;18.00;99.90;;;;;;5034360;28;20095;-63
2021/07/20 00:34:48;;;;;;;13.93;5.68;;;17.90;99.90;;;;;;5035929;28;20091;-63
2021/07/20 00:37:15;;;;;;;15.02;6.53;;;18.00;99.90;;;;;;5033397;28;20071;-63
2021/07/20 00:39:42;;;;;;;11.90;6.22;;;18.00;99.90;;;;;;5033009;28;20462;-64
2021/07/20 00:42:09;;;;;;;19.15;7.07;;;18.00;99.90;;;;;;5033952;28;20126;-63
2021/07/20 00:44:38;;;;;;;11.68;5.65;;;18.00;99.90;;;;;;5034033;28;20129;-64
2021/07/20 00:47:05;;;;;;;16.33;6.78;;;18.00;99.90;;;;;;5035748;28;21308;-63
2021/07/20 00:49:32;;;;;;;12.23;6.07;;;18.10;99.90;;;;;;5035258;28;20135;-64
2021/07/20 00:51:59;;;;;;;12.13;6.38;;;17.90;99.90;;;;;;5033930;28;20048;-64
2021/07/20 00:54:27;;;;;;;12.43;5.88;;;17.90;99.90;;;;;;5032899;28;20071;-64
2021/07/20 00:56:54;;;;;;;15.38;6.20;;;17.90;99.90;;;;;;5033969;28;20076;-63
2021/07/20 00:59:21;;;;;;;12.18;5.55;;;18.00;99.90;;;;;;5032214;28;20157;-64
2021/07/20 01:01:50;;;;;;;16.27;6.57;;;18.10;99.90;;;;;;5033517;28;20084;-64
2021/07/20 01:04:17;;;;;;;14.65;6.25;;;18.10;99.90;;;;;;5033867;28;20080;-64
2021/07/20 01:06:46;;;;;;;16.05;6.55;;;18.10;99.90;;;;;;5034204;28;20079;-63
2021/07/20 01:09:14;;;;;;;11.23;6.70;;;18.00;99.90;;;;;;5030938;28;20072;-63
2021/07/20 01:11:41;;;;;;;10.55;5.80;;;18.10;99.90;;;;;;5033476;28;20124;-64
2021/07/20 01:14:08;;;;;;;15.93;6.90;;;18.10;99.90;;;;;;5032679;28;20132;-64
2021/07/20 01:16:38;;;;;;;12.85;6.50;;;18.10;99.90;;;;;;5034668;28;20097;-63
2021/07/20 01:19:08;;;;;;;14.95;6.70;;;18.00;99.90;;;;;;5031023;28;20048;-64
2021/07/20 01:21:38;;;;;;;13.27;6.35;;;18.00;99.90;;;;;;5033787;28;20094;-63
2021/07/20 01:24:08;;;;;;;12.85;6.32;;;18.00;99.90;;;;;;5033193;28;20455;-63
2021/07/20 01:26:36;;;;;;;12.32;6.05;;;18.00;99.90;;;;;;5035252;28;20113;-64
2021/07/20 01:29:04;;;;;;;13.27;7.00;;;17.90;99.90;;;;;;5032929;28;20102;-64
2021/07/20 01:31:36;;;;;;;12.57;6.40;;;18.00;99.90;;;;;;5032333;28;20087;-64
2021/07/20 01:34:05;;;;;;;14.75;6.80;;;17.90;99.90;;;;;;5033164;28;20138;-63
2021/07/20 01:36:33;;;;;;;13.20;6.90;;;17.90;99.90;;;;;;5032897;28;20076;-64
2021/07/20 01:39:04;;;;;;;12.82;6.55;;;17.70;99.90;;;;;;5032516;28;20091;-64
2021/07/20 01:41:33;;;;;;;11.52;6.63;;;17.70;99.90;;;;;;5035252;28;20133;-62
2021/07/20 01:44:04;;;;;;;20.95;7.13;;;17.40;99.90;;;;;;5034698;28;20072;-64
2021/07/20 01:46:33;;;;;;;16.60;6.53;;;17.50;99.90;;;;;;5033874;28;20044;-64
2021/07/20 01:49:02;;;;;;;13.15;6.38;;;17.60;99.90;;;;;;5032630;28;20044;-63
2021/07/20 01:51:29;;;;;;;18.25;6.75;;;17.60;99.90;;;;;;5033592;28;20135;-64
2021/07/20 01:53:59;;;;;;;12.70;6.05;;;17.60;99.90;;;;;;5033258;28;20103;-63
2021/07/20 01:56:27;;;;;;;19.25;7.47;;;17.60;99.90;;;;;;5033672;28;20125;-63
2021/07/20 01:58:56;;;;;;;15.05;6.80;;;17.60;99.90;;;;;;5033787;28;20045;-64
2021/07/20 02:01:27;;;;;;;15.35;7.10;;;17.60;99.90;;;;;;5033972;28;20103;-64
2021/07/20 02:09:30;;;;;;;13.02;7.03;;;17.50;99.90;;;;;;5035763;28;20067;-63
2021/07/20 02:11:58;;;;;;;12.20;6.13;;;17.60;99.90;;;;;;5035989;28;21047;-64
2021/07/20 02:14:31;;;;;;;18.00;6.20;;;17.70;99.90;;;;;;5035573;28;20052;-63
2021/07/20 02:17:02;;;;;;;13.98;6.07;;;17.70;99.90;;;;;;5037060;28;20059;-64
2021/07/20 02:19:33;;;;;;;14.70;6.38;;;17.80;99.90;;;;;;5034919;28;20102;-63
2021/07/20 02:22:02;;;;;;;15.80;6.88;;;17.90;99.90;;;;;;5037706;28;20060;-63
2021/07/20 02:24:30;;;;;;;12.70;6.45;;;17.90;99.90;;;;;;5036989;28;21726;-64
2021/07/20 02:27:00;;;;;;;12.50;5.78;;;18.00;99.90;;;;;;5037347;28;20545;-64
2021/07/20 02:29:29;;;;;;;11.93;6.70;;;17.90;99.90;;;;;;5036288;28;20461;-62
2021/07/20 02:31:59;;;;;;;15.52;6.47;;;17.90;99.90;;;;;;5035704;28;20080;-63
2021/07/20 02:34:29;;;;;;;20.85;7.20;;;17.70;99.90;;;;;;5035975;28;20457;-62
2021/07/20 02:36:57;;;;;;;10.95;6.25;;;17.70;99.90;;;;;;5037266;28;20080;-63
2021/07/20 02:39:25;;;;;;;10.23;5.75;;;17.70;99.90;;;;;;5034080;28;20131;-64
2021/07/20 02:41:54;;;;;;;12.43;6.53;;;17.70;99.90;;;;;;5035806;28;20076;-63
2021/07/20 02:44:24;;;;;;;11.88;6.55;;;17.80;99.90;;;;;;5035696;28;20048;-63
2021/07/20 02:46:54;;;;;;;15.15;6.22;;;17.70;99.90;;;;;;5036388;28;20072;-64
2021/07/20 02:49:22;;;;;;;13.05;6.25;;;17.50;99.90;;;;;;5034511;28;20053;-64
2021/07/20 02:51:51;;;;;;;11.73;5.88;;;17.60;99.90;;;;;;5036218;28;20127;-64
2021/07/20 02:54:21;;;;;;;13.25;6.43;;;17.70;99.90;;;;;;5035488;28;20060;-63
2021/07/20 02:56:49;;;;;;;13.35;5.90;;;17.70;99.90;;;;;;5035795;28;20072;-63
2021/07/20 02:59:19;;;;;;;11.02;6.10;;;17.80;99.90;;;;;;5035041;28;20045;-64
2021/07/20 03:01:47;;;;;;;16.75;6.40;;;17.70;99.90;;;;;;5035861;28;20546;-63
2021/07/20 03:04:16;;;;;;;12.68;6.03;;;17.70;99.90;;;;;;5035931;28;20072;-64
2021/07/20 03:06:46;;;;;;;10.32;5.97;;;17.90;99.90;;;;;;5036135;28;20056;-64
2021/07/20 03:09:14;;;;;;;12.15;6.57;;;17.80;99.90;;;;;;5034338;28;20665;-63
2021/07/20 03:11:44;;;;;;;16.17;6.07;;;17.60;99.90;;;;;;5035721;28;20474;-63
2021/07/20 03:14:13;;;;;;;15.75;6.25;;;17.60;99.90;;;;;;5034924;28;20068;-63
2021/07/20 03:16:43;;;;;;;16.52;6.47;;;17.60;99.90;;;;;;5036781;28;20161;-63
2021/07/20 03:19:13;;;;;;;18.30;5.45;;;17.70;99.90;;;;;;5033993;28;20102;-63
2021/07/20 03:21:43;;;;;;;13.10;5.85;;;17.70;99.90;;;;;;5035764;28;20056;-64
2021/07/20 03:24:10;;;;;;;14.95;6.22;;;17.70;99.90;;;;;;5034052;28;20048;-63
2021/07/20 03:26:38;;;;;;;15.75;6.80;;;17.70;99.90;;;;;;5035971;28;20665;-64
2021/07/20 03:29:08;;;;;;;13.43;6.47;;;17.70;99.90;;;;;;5034259;28;20048;-64
2021/07/20 03:31:36;;;;;;;12.63;6.07;;;17.60;99.90;;;;;;5035077;28;20048;-63
2021/07/20 03:34:05;;;;;;;12.18;6.05;;;17.50;99.90;;;;;;5035941;28;20466;-64
2021/07/20 03:36:32;;;;;;;15.45;6.82;;;17.60;99.90;;;;;;5034994;28;20049;-63
2021/07/20 03:39:02;;;;;;;13.88;6.57;;;17.50;99.90;;;;;;5033148;28;20056;-64
2021/07/20 03:41:31;;;;;;;11.02;5.63;;;17.30;99.90;;;;;;5034627;28;20053;-64
2021/07/20 03:43:59;;;;;;;17.42;6.82;;;17.30;99.90;;;;;;5035299;28;20052;-63
2021/07/20 03:46:26;;;;;;;11.48;6.25;;;17.30;99.90;;;;;;5035581;28;20052;-65
2021/07/20 03:48:54;;;;;;;11.95;6.75;;;17.30;99.90;;;;;;5034054;28;20044;-63
2021/07/20 03:51:22;;;;;;;14.50;6.68;;;17.30;99.90;;;;;;5033754;28;20124;-63
2021/07/20 03:53:50;;;;;;;15.48;6.80;;;17.30;99.90;;;;;;5034863;28;20562;-64
2021/07/20 03:56:20;;;;;;;13.73;6.93;;;17.30;99.90;;;;;;5033960;28;20045;-63
2021/07/20 03:58:49;;;;;;;15.88;6.75;;;17.30;99.90;;;;;;5033311;28;20084;-64
2021/07/20 04:01:16;;;;;;;12.23;6.47;;;17.30;99.90;;;;;;5033855;28;20141;-63
2021/07/20 04:03:46;;;;;;;14.80;6.78;;;17.30;99.90;;;;;;5034627;28;20107;-64
2021/07/20 04:06:16;;;;;;;15.70;7.10;;;17.20;99.90;;;;;;5034140;28;20121;-64
2021/07/20 04:08:44;;;;;;;17.23;7.00;;;17.10;99.90;;;;;;5033353;28;20090;-64
2021/07/20 04:11:14;;;;;;;14.43;7.30;;;17.30;99.90;;;;;;5033619;28;20055;-64
2021/07/20 04:13:43;;;;;;;14.50;7.68;;;17.30;99.90;;;;;;5033930;28;20057;-64
2021/07/20 04:16:12;;;;;;;15.18;6.57;;;17.20;99.90;;;;;;5033276;28;20135;-64
2021/07/20 04:18:39;;;;;;;13.15;6.97;;;17.30;99.90;;;;;;5033343;28;20479;-63
2021/07/20 04:21:08;;;;;;;13.68;7.03;;;17.30;99.90;;;;;;5033861;28;20083;-63
2021/07/20 04:23:36;;;;;;;13.88;6.60;;;17.40;99.90;;;;;;5035572;28;20048;-64
2021/07/20 04:26:04;;;;;;;14.05;7.20;;;17.40;99.90;;;;;;5034754;28;20048;-63
2021/07/20 04:28:31;;;;;;;13.63;6.53;;;17.40;99.90;;;;;;5032369;28;20048;-64
2021/07/20 04:30:59;;;;;;;16.05;6.70;;;17.50;99.90;;;;;;5033602;28;20163;-63
2021/07/20 04:33:31;;;;;;;14.73;6.78;;;17.50;99.90;;;;;;5032748;28;20654;-63
2021/07/20 04:35:59;;;;;;;12.65;6.60;;;17.50;99.90;;;;;;5033838;28;20711;-64
2021/07/20 04:38:29;;;;;;;13.00;6.78;;;17.40;99.90;;;;;;5032182;28;20106;-64
2021/07/20 04:40:56;;;;;;;13.93;6.72;;;17.50;99.90;;;;;;5034369;28;20135;-64
2021/07/20 04:43:23;;;;;;;15.60;6.90;;;17.50;99.90;;;;;;5034241;28;20083;-64
2021/07/20 04:45:53;;;;;;;15.50;6.15;;;17.50;99.90;;;;;;5030071;28;20471;-64
2021/07/20 04:48:22;;;;;;;18.52;6.88;;;17.50;99.90;;;;;;5027435;28;20056;-64
2021/07/20 04:50:52;;;;;;;17.05;7.30;;;17.50;99.90;;;;;;5033247;28;20137;-64
2021/07/20 04:53:19;;;;;;;12.18;6.13;;;17.40;99.90;;;;;;5033177;28;20044;-63
2021/07/20 04:55:51;;;;;;;15.38;6.75;;;17.40;99.90;;;;;;5033209;28;20139;-63
2021/07/20 04:58:18;;;;;;;14.60;6.45;;;17.40;99.90;;;;;;5027776;28;20105;-62
2021/07/20 05:00:49;;;;;;;15.75;7.00;;;17.40;99.90;;;;;;5033620;28;20517;-64
2021/07/20 05:03:18;;;;;;;15.18;7.20;;;17.50;99.90;;;;;;5034063;28;20515;-63
2021/07/20 05:05:48;;;;;;;10.45;5.93;;;17.50;99.90;;;;;;5033652;28;20126;-63
2021/07/20 05:08:17;;;;;;;14.38;6.95;;;17.60;99.90;;;;;;5032525;28;20044;-64
2021/07/20 05:10:48;;;;;;;14.60;6.50;;;17.70;99.90;;;;;;5033552;28;20088;-64
2021/07/20 05:13:19;;;;;;;14.68;5.97;;;17.80;99.90;;;;;;5035031;28;20044;-64
2021/07/20 05:15:48;;;;;;;15.27;6.70;;;17.80;99.90;;;;;;5034396;28;20137;-64
2021/07/20 05:18:15;;;;;;;16.08;6.80;;;17.70;99.90;;;;;;5033593;28;20094;-63
2021/07/20 05:20:44;;;;;;;17.13;6.78;;;17.70;99.90;;;;;;5034115;28;20137;-63
2021/07/20 05:23:16;;;;;;;13.15;6.80;;;17.70;99.90;;;;;;5032914;28;20477;-64
2021/07/20 05:25:46;;;;;;;13.23;7.05;;;17.80;99.90;;;;;;5035367;28;20098;-64
2021/07/20 05:28:14;;;;;;;13.73;6.70;;;17.90;99.90;;;;;;5033455;28;20119;-62
2021/07/20 05:30:43;;;;;;;12.98;6.28;;;17.90;99.90;;;;;;5035412;28;20581;-64
2021/07/20 05:33:11;;;;;;;17.23;6.72;;;18.00;99.90;;;;;;5029755;28;20422;-63
2021/07/20 05:35:38;;;;;;;14.80;6.60;;;18.00;99.90;;;;;;5033206;28;20052;-63
2021/07/20 05:38:06;;;;;;;17.08;7.05;;;18.10;99.90;;;;;;5033424;28;20080;-62
2021/07/20 05:40:34;;;;;;;15.90;6.93;;;18.00;99.90;;;;;;5033664;28;21374;-62
2021/07/20 05:43:01;;;;;;;15.48;6.72;;;18.00;99.90;;;;;;5032956;28;20141;-62
2021/07/20 05:45:29;;;;;;;15.50;6.50;;;18.30;99.90;;;;;;5033452;28;20064;-66
2021/07/20 05:47:57;;;;;;;12.85;6.72;;;18.20;99.90;;;;;;5036298;28;20044;-64
2021/07/20 05:50:24;;;;;;;12.95;6.95;;;18.30;99.90;;;;;;5036378;28;20052;-64
2021/07/20 05:52:53;;;;;;;17.13;6.90;;;18.30;99.90;;;;;;5036471;28;20153;-62
2021/07/20 05:55:21;;;;;;;11.50;6.72;;;18.10;99.90;;;;;;5037911;28;20060;-64
2021/07/20 05:57:51;;;;;;;16.33;6.38;;;18.20;99.90;;;;;;5030563;28;20062;-66
2021/07/20 06:00:23;;;;;;;12.95;6.47;;;18.10;99.90;;;;;;5030416;28;20036;-71
2021/07/20 06:02:50;;;;;;;15.95;6.90;;;18.10;99.90;;;;;;5033350;28;20212;-71
2021/07/20 06:05:20;;;;;;;15.30;7.10;;;18.00;99.90;;;;;;5039601;28;20127;-67
2021/07/20 06:07:49;;;;;;;14.02;6.63;;;18.00;99.90;;;;;;5036774;28;20056;-71
2021/07/20 06:10:19;;;;;;;14.27;7.03;;;18.10;99.90;;;;;;5039059;28;20052;-66
2021/07/20 06:12:47;;;;;;;19.50;7.07;;;18.00;99.90;;;;;;5038572;28;20192;-69
2021/07/20 06:15:17;;;;;;;15.50;6.85;;;18.10;99.90;;;;;;5040291;28;20048;-66
2021/07/20 06:17:45;;;;;;;15.35;7.53;;;18.10;99.90;;;;;;5040360;28;20193;-68
2021/07/20 06:20:14;;;;;;;18.77;7.18;;;18.30;99.90;;;;;;5045133;28;20574;-71
2021/07/20 06:22:48;;;;;;;15.70;6.63;;;18.30;99.90;;;;;;5038376;28;20126;-67
2021/07/20 06:25:17;;;;;;;14.80;7.32;;;18.30;99.90;;;;;;5042387;28;20040;-68
2021/07/20 06:27:45;;;;;;;17.85;7.35;;;18.40;99.90;;;;;;5036950;28;20059;-69
2021/07/20 06:30:16;;;;;;;22.38;7.50;;;18.30;99.90;;;;;;5038823;28;20132;-67
2021/07/20 06:32:45;;;;;;;16.55;7.47;;;18.50;99.90;;;;;;5040853;28;20404;-66
2021/07/20 06:35:15;;;;;;;13.82;6.88;;;18.60;99.90;;;;;;5041316;28;20052;-66
2021/07/20 06:37:45;;;;;;;20.13;7.93;;;18.70;99.90;;;;;;5038234;28;20052;-65
2021/07/20 06:40:15;;;;;;;14.15;6.78;;;18.80;99.90;;;;;;5037492;28;20076;-65
2021/07/20 06:42:43;;;;;;;15.82;7.43;;;18.90;99.90;;;;;;5038604;28;20052;-66
2021/07/20 06:45:13;;;;;;;15.13;7.40;;;18.80;99.90;;;;;;5039422;28;20125;-69
2021/07/20 06:47:43;;;;;;;19.85;7.97;;;18.80;99.90;;;;;;5037859;28;20092;-66
2021/07/20 06:50:12;;;;;;;18.98;7.95;;;18.90;99.90;;;;;;5039455;28;20517;-70
2021/07/20 06:52:42;;;;;;;13.32;6.82;;;19.20;99.90;;;;;;5037758;28;20119;-66
2021/07/20 06:55:10;;;;;;;17.10;7.07;;;19.30;99.90;;;;;;5038670;28;20049;-71
2021/07/20 06:57:40;;;;;;;16.17;7.53;;;19.30;99.90;;;;;;5036070;28;20468;-70
2021/07/20 07:00:08;;;;;;;13.88;7.38;;;19.30;99.90;;;;;;5036433;28;20048;-70
2021/07/20 07:02:38;;;;;;;16.27;7.00;;;19.30;99.90;;;;;;5037817;28;21249;-71
2021/07/20 07:05:10;;;;;;;15.27;7.22;;;19.50;99.90;;;;;;5042434;28;20098;-70
2021/07/20 07:07:38;;;;;;;18.27;7.63;;;19.60;99.90;;;;;;5037681;28;20094;-67
2021/07/20 07:10:08;;;;;;;21.23;7.28;;;19.80;99.90;;;;;;5039276;28;20060;-68
2021/07/20 07:12:44;;;;;;;13.15;6.25;;;19.90;99.90;;;;;;5038921;28;20175;-78
2021/07/20 07:15:15;;;;;;;13.70;6.57;;;20.00;99.90;;;;;;5040658;28;20352;-68
2021/07/20 07:17:42;;;;;;;14.75;7.32;;;20.10;99.90;;;;;;5035804;28;20056;-64
2021/07/20 07:20:13;;;;;;;19.98;6.90;;;20.20;99.90;;;;;;5034461;28;20048;-63
2021/07/20 07:22:42;;;;;;;13.23;5.90;;;20.20;99.90;;;;;;5038723;28;20143;-63
2021/07/20 07:25:11;;;;;;;16.38;5.72;;;20.30;99.90;;;;;;5039807;28;20121;-64
2021/07/20 07:27:40;;;;;;;11.68;5.70;;;20.40;99.90;;;;;;5039596;28;20093;-65
2021/07/20 07:30:08;;;;;;;11.63;5.47;;;20.40;99.90;;;;;;5040924;28;20109;-64
2021/07/20 07:32:37;;;;;;;14.95;6.18;;;20.60;99.90;;;;;;5032831;28;20057;-64
2021/07/20 07:35:05;;;;;;;12.05;5.80;;;20.70;99.90;;;;;;5041745;28;20493;-65
2021/07/20 07:37:36;;;;;;;13.30;5.32;;;20.70;99.90;;;;;;5043950;28;20092;-64
2021/07/20 07:40:06;;;;;;;13.15;6.25;;;20.90;99.90;;;;;;5045138;28;20049;-64
2021/07/20 07:42:35;;;;;;;13.15;6.05;;;21.20;99.90;;;;;;5044225;28;20393;-64
2021/07/20 07:45:04;;;;;;;15.45;6.95;;;21.50;99.90;;;;;;5044463;28;20088;-64
2021/07/20 07:47:32;;;;;;;13.07;6.38;;;21.80;99.90;;;;;;5045484;28;20098;-64
2021/07/20 07:49:59;;;;;;;10.00;5.97;;;22.20;99.90;;;;;;5045156;28;20049;-65
2021/07/20 07:52:26;;;;;;;10.88;6.05;;;22.20;99.90;;;;;;5044116;28;20121;-64
2021/07/20 07:54:55;;;;;;;16.13;6.22;;;22.30;99.90;;;;;;5045926;28;20095;-64
2021/07/20 07:57:24;;;;;;;11.45;5.70;;;22.30;99.90;;;;;;5044075;28;20118;-64
2021/07/20 07:59:56;;;;;;;17.08;6.75;;;22.60;99.90;;;;;;5044962;28;20135;-63
2021/07/20 08:02:28;;;;;;;14.35;6.03;;;22.90;99.90;;;;;;5040654;28;21031;-64
2021/07/20 08:04:56;;;;;;;15.27;6.32;;;22.90;99.90;;;;;;5046319;28;20135;-64
2021/07/20 08:07:24;;;;;;;15.27;6.72;;;23.00;99.90;;;;;;5045264;28;20128;-64
2021/07/20 08:09:53;;;;;;;18.27;6.45;;;23.20;99.90;;;;;;5044491;28;20048;-64
2021/07/20 08:12:22;;;;;;;11.98;5.95;;;23.30;99.90;;;;;;5046717;28;20052;-64
2021/07/20 08:14:49;;;;;;;14.50;6.60;;;23.50;99.90;;;;;;5047264;28;20055;-64
2021/07/20 08:17:17;;;;;;;12.93;6.13;;;23.70;99.90;;;;;;5044857;28;20079;-65
2021/07/20 08:19:45;;;;;;;12.43;6.00;;;23.90;99.90;;;;;;5043990;28;20484;-65
2021/07/20 08:22:17;;;;;;;13.68;6.32;;;24.20;99.90;;;;;;5043686;28;20060;-64
2021/07/20 08:24:54;;;;;;;16.83;6.55;;;24.50;99.90;;;;;;5043310;28;20059;-64
2021/07/20 08:27:30;;;;;;;14.57;6.45;;;24.90;99.90;;;;;;5043444;28;20398;-64
2021/07/20 08:29:58;;;;;;;10.80;6.07;;;24.80;99.90;;;;;;5041972;28;20052;-64
2021/07/20 08:32:30;;;;;;;14.48;6.38;;;24.90;99.90;;;;;;5042517;28;20572;-65
2021/07/20 08:35:01;;;;;;;23.33;8.55;;;25.00;99.90;;;;;;5044492;28;20049;-65
2021/07/20 08:37:32;;;;;;;11.70;5.75;;;25.10;99.90;;;;;;5044712;28;20067;-65
2021/07/20 08:40:01;;;;;;;16.48;6.85;;;25.10;99.90;;;;;;5047620;28;20097;-65
2021/07/20 08:42:46;;;;;;;14.48;6.30;;;24.80;99.90;;;;;;5047402;28;20410;-64
2021/07/20 08:45:18;;;;;;;12.68;6.00;;;24.50;99.90;;;;;;5046034;28;20520;-65
2021/07/20 08:48:02;;;;;;;14.60;6.03;;;24.10;99.90;;;;;;5046191;28;20076;-64
2021/07/20 08:50:30;;;;;;;12.25;6.18;;;24.50;99.90;;;;;;5045162;28;20076;-65
2021/07/20 08:53:09;;;;;;;29.02;8.63;;;24.80;99.90;;;;;;5045744;28;20052;-65
2021/07/20 08:55:42;;;;;;;15.98;7.38;;;24.60;99.90;;;;;;5045058;28;20146;-64
2021/07/20 08:58:20;;;;;;;11.73;6.65;;;24.60;99.90;;;;;;5043535;28;20080;-64
2021/07/20 09:00:50;;;;;;;13.82;6.32;;;24.90;99.90;;;;;;5044066;28;20135;-64
2021/07/20 09:03:43;;;;;;;13.32;6.55;;;25.20;99.90;;;;;;5041731;28;20512;-65
2021/07/20 09:06:15;;;;;;;14.85;7.38;;;25.60;99.90;;;;;;5040762;28;20661;-63
2021/07/20 09:08:46;;;;;;;19.50;7.22;;;25.70;99.90;;;;;;5043055;28;20189;-64
2021/07/20 09:11:17;;;;;;;13.55;6.57;;;25.90;99.90;;;;;;5043159;28;20060;-64
2021/07/20 09:13:52;;;;;;;13.43;6.72;;;26.30;99.90;;;;;;5047110;28;20040;-63
2021/07/20 09:16:29;;;;;;;14.90;6.97;;;26.30;99.90;;;;;;5047168;28;20048;-64
2021/07/20 09:19:02;;;;;;;12.20;7.10;;;26.80;99.90;;;;;;5051206;28;20048;-64
2021/07/20 09:21:33;;;;;;;12.60;7.22;;;27.60;99.90;;;;;;5050129;28;20053;-64
2021/07/20 09:24:07;;;;;;;13.38;7.38;;;28.00;99.90;;;;;;5053213;28;20125;-64
2021/07/20 09:26:40;;;;;;;14.73;7.50;;;28.40;99.90;;;;;;5050366;28;20076;-65
2021/07/20 09:29:14;;;;;;;13.50;7.50;;;29.30;99.80;;;;;;5051094;28;20056;-64
2021/07/20 09:32:01;;;;;;;13.88;7.82;;;29.70;99.60;;;;;;5052536;28;20459;-64
2021/07/20 09:34:32;;;;;;;12.20;7.70;;;28.90;98.80;;;;;;5051716;28;20044;-64
2021/07/20 09:37:03;;;;;;;14.15;7.20;;;28.00;99.70;;;;;;5050630;28;20614;-65
2021/07/20 09:39:44;;;;;;;14.70;8.07;;;27.40;99.90;;;;;;5047434;28;21103;-62
2021/07/20 09:42:21;;;;;;;13.45;7.90;;;26.90;99.90;;;;;;5043657;28;20115;-65
2021/07/20 09:44:57;;;;;;;14.90;8.10;;;26.40;99.50;;;;;;5044673;28;20097;-64
2021/07/20 09:47:27;;;;;;;15.05;7.88;;;26.70;99.90;;;;;;5040062;28;20045;-65
2021/07/20 09:50:15;;;;;;;12.00;7.15;;;27.80;99.00;;;;;;5038954;28;20044;-65
2021/07/20 09:53:07;;;;;;;13.60;7.88;;;28.80;96.80;;;;;;5036840;28;20679;-65
2021/07/20 09:55:43;;;;;;;17.73;8.50;;;29.00;96.80;;;;;;5035224;28;20055;-64
2021/07/20 09:58:22;;;;;;;15.50;7.50;;;29.20;95.60;;;;;;5047111;28;20048;-65
2021/07/20 10:01:10;;;;;;;16.08;8.15;;;29.70;96.20;;;;;;5049718;28;20078;-65
2021/07/20 10:03:46;;;;;;;18.48;8.77;;;29.40;94.00;;;;;;5054127;28;20155;-65
2021/07/20 10:06:18;;;;;;;11.90;8.10;;;30.10;92.30;;;;;;5048934;28;20052;-65
2021/07/20 10:08:53;;;;;;;17.83;8.23;;;30.90;92.00;;;;;;5049003;28;20132;-65
2021/07/20 10:11:25;;;;;;;14.32;8.10;;;30.00;92.70;;;;;;5047960;28;20057;-65
2021/07/20 10:14:17;;;;;;;13.38;8.15;;;30.50;92.10;;;;;;5044727;28;20546;-68
2021/07/20 10:16:53;;;;;;;15.38;8.40;;;29.30;91.50;;;;;;5046924;28;20048;-65
2021/07/20 10:19:31;;;;;;;19.02;8.32;;;27.70;92.90;;;;;;5045699;28;20048;-65
2021/07/20 10:22:01;;;;;;;16.65;8.68;;;27.50;94.70;;;;;;5046813;28;20079;-66
2021/07/20 10:24:32;;;;;;;14.05;7.55;;;27.50;95.00;;;;;;5046957;28;20047;-66
2021/07/20 10:27:04;;;;;;;14.02;8.45;;;26.90;94.30;;;;;;5042678;28;20145;-64
2021/07/20 10:29:42;;;;;;;13.15;7.78;;;27.50;95.10;;;;;;5033844;28;20056;-64
2021/07/20 10:32:17;;;;;;;18.98;7.68;;;28.60;93.40;;;;;;5041043;28;20110;-64
2021/07/20 10:34:47;;;;;;;14.77;7.70;;;28.30;93.00;;;;;;5041310;28;20142;-64
2021/07/20 10:37:22;;;;;;;13.65;7.75;;;28.00;94.10;;;;;;5043100;28;20143;-64
2021/07/20 10:39:52;;;;;;;14.00;7.57;;;28.30;93.10;;;;;;5043377;28;20063;-64
2021/07/20 10:42:25;;;;;;;14.23;8.05;;;28.00;93.10;;;;;;5043444;28;20060;-64
2021/07/20 10:44:58;;;;;;;13.65;8.23;;;28.60;93.30;;;;;;5042166;28;20139;-64
2021/07/20 10:47:34;;;;;;;15.80;7.55;;;29.40;92.30;;;;;;5044960;28;20743;-64
2021/07/20 10:50:04;;;;;;;16.05;7.57;;;29.70;90.80;;;;;;5046313;28;20060;-65
2021/07/20 10:52:46;;;;;;;11.73;7.35;;;30.60;89.90;;;;;;5031643;28;20041;-64
2021/07/20 10:55:21;;;;;;;14.57;7.65;;;31.50;88.80;;;;;;5029671;28;20080;-64
2021/07/20 10:57:58;;;;;;;10.77;7.35;;;31.80;86.60;;;;;;5032714;28;20064;-65
2021/07/20 11:00:30;;;;;;;11.23;7.70;;;32.40;83.90;;;;;;5033468;28;20149;-68
2021/07/20 11:03:09;;;;;;;10.70;6.75;;;32.20;82.80;;;;;;5032272;28;20108;-66
2021/07/20 11:05:40;;;;;;;12.75;7.32;;;32.70;81.20;;;;;;5032030;28;20139;-66
2021/07/20 11:08:09;;;;;;;13.05;7.25;;;33.10;80.20;;;;;;5037159;28;20044;-67
2021/07/20 11:10:38;;;;;;;14.50;7.40;;;31.70;77.60;;;;;;5037223;28;20135;-69
2021/07/20 11:13:07;;;;;;;12.52;7.90;;;30.70;80.10;;;;;;5039786;28;20582;-74
2021/07/20 11:15:37;;;;;;;13.38;7.70;;;32.20;79.90;;;;;;5039501;28;20088;-73
2021/07/20 11:18:09;;;;;;;13.25;7.63;;;32.30;79.30;;;;;;5038806;28;20075;-70
2021/07/20 11:20:36;;;;;;;11.57;7.50;;;32.00;77.60;;;;;;5043472;28;20040;-70
2021/07/20 11:23:06;;;;;;;14.02;8.00;;;31.50;79.90;;;;;;5042302;28;20048;-70
2021/07/20 11:25:34;;;;;;;14.10;7.78;;;32.00;78.60;;;;;;5035297;28;20057;-73
2021/07/20 11:28:03;;;;;;;12.52;7.72;;;32.00;75.60;;;;;;5038962;28;20052;-69
2021/07/20 11:30:34;;;;;;;12.02;7.13;;;31.50;75.80;;;;;;5041949;28;20135;-71
2021/07/20 11:33:05;;;;;;;12.88;7.60;;;32.40;78.80;;;;;;5041718;28;20055;-69
2021/07/20 11:35:45;;;;;;;15.60;7.10;;;32.50;76.50;;;;;;5039443;28;20036;-69
2021/07/20 11:38:15;;;;;;;14.30;7.68;;;33.20;77.10;;;;;;5038357;28;20130;-68
2021/07/20 11:40:49;;;;;;;13.88;7.75;;;33.60;76.30;;;;;;5041601;28;20071;-71
2021/07/20 11:43:24;;;;;;;12.90;7.32;;;33.80;75.70;;;;;;5049451;28;20505;-73
2021/07/20 11:45:56;;;;;;;14.63;7.72;;;33.90;75.90;;;;;;5046889;28;20098;-74
2021/07/20 11:48:29;;;;;;;14.90;8.07;;;34.10;74.10;;;;;;5045826;28;20053;-73
2021/07/20 11:51:06;;;;;;;12.82;7.07;;;33.60;74.60;;;;;;5033658;28;20052;-74
2021/07/20 11:53:40;;;;;;;13.00;7.50;;;34.20;73.70;;;;;;5036265;28;20071;-74
2021/07/20 11:56:19;;;;;;;12.75;7.68;;;34.40;69.70;;;;;;5033727;28;20095;-74
2021/07/20 11:59:35;;;;;;;11.98;7.45;;;34.10;70.00;;;;;;5035256;28;20409;-69
2021/07/20 12:02:47;;;;;;;13.68;8.20;;;33.00;71.50;;;;;;5032288;28;20442;-72
2021/07/20 12:05:36;;;;;;;14.45;7.85;;;32.20;73.30;;;;;;5033251;28;20114;-72
2021/07/20 12:08:12;;;;;;;14.23;7.68;;;31.60;74.90;;;;;;4995929;28;20512;-69
2021/07/20 12:10:46;;;;;;;13.93;7.50;;;32.00;75.70;;;;;;5044095;28;20550;-70
2021/07/20 12:13:16;;;;;;;21.10;8.57;;;32.10;74.70;;;;;;5044101;28;20076;-70
2021/07/20 12:15:45;;;;;;;10.90;7.28;;;32.10;76.00;;;;;;5040672;28;20167;-69
2021/07/20 12:18:12;;;;;;;10.40;6.80;;;32.80;72.70;;;;;;5040336;28;20063;-73
2021/07/20 12:20:42;;;;;;;12.32;7.93;;;33.60;72.40;;;;;;5042046;28;20056;-71
2021/07/20 12:23:12;;;;;;;10.75;7.32;;;33.70;70.10;;;;;;5044372;28;20061;-71
2021/07/20 12:25:39;;;;;;;11.73;7.75;;;33.40;68.90;;;;;;5040004;28;20098;-74
2021/07/20 12:28:08;;;;;;;12.45;7.63;;;33.50;69.10;;;;;;5043250;28;20131;-71
2021/07/20 12:30:35;;;;;;;15.65;7.85;;;33.70;71.60;;;;;;5044280;28;20058;-70
2021/07/20 12:33:16;;;;;;;19.83;8.27;;;33.70;71.50;;;;;;5046677;28;20088;-70
2021/07/20 12:35:51;;;;;;;21.00;8.98;;;33.30;70.10;;;;;;5056769;28;20155;-71
2021/07/20 12:38:24;;;;;;;14.23;7.80;;;33.60;71.90;;;;;;5047708;28;20079;-76
2021/07/20 12:40:51;;;;;;;13.98;7.85;;;34.30;70.80;;;;;;5043023;28;20049;-74
2021/07/20 12:43:18;;;;;;;13.18;8.02;;;34.40;67.80;;;;;;5043689;28;20176;-75
2021/07/20 12:45:47;;;;;;;13.38;7.88;;;34.00;69.30;;;;;;5042864;28;20615;-75
2021/07/20 12:48:25;;;;;;;14.73;7.90;;;34.80;69.10;;;;;;5041131;28;20056;-73
2021/07/20 12:50:53;;;;;;;11.63;7.60;;;34.90;67.20;;;;;;5038203;28;20056;-71
2021/07/20 12:53:21;;;;;;;11.32;7.43;;;34.30;65.80;;;;;;5038662;28;20425;-72
2021/07/20 12:55:50;;;;;;;12.20;8.18;;;34.60;67.90;;;;;;5039763;28;20143;-71
2021/07/20 12:58:18;;;;;;;15.50;8.63;;;34.90;64.80;;;;;;5038301;28;20080;-69